Pyland, Mississippi
Current Conditions -  °F | °C
As of 6:55 AM on Wednesday 26 Nov 2014 (Local Time) from KM40 Reporting Station
Clear Clear  
Wind Chill: 28°   Ceiling: Unl
Heat Index: 28°   Visibility: 8mi
Dew Point: 14°   Wind: 0mph
Humidity: 55%   Direction: NA
Pressure: 30.19"   Gusts: NA
Location:  33.9121°N, 88.9314°W
Report Text: KM40 261255Z AUTO 00000KT 8SM CLR M02/M10 A3019 RMK AO2
Loading
Personal Weather Stations






























Interactive Weather Map New forecast layout! Learn more

10-Day Weather Forecast

Advertisements
Track Severe Weather on mobile